Kouts, Indiana
Current Conditions -  °F | °C
As of 10:56 AM on Monday 22 Dec 2014 (Local Time) from KVPZ Reporting Station
Unknown Precip Unknown Precip  
Wind Chill: 25°   Ceiling: 4600
Heat Index: 34°   Visibility: 6mi
Dew Point: 29°   Wind: 13mph
Humidity: 82%   Direction: 130°SE
Pressure: 29.89"   Gusts: NA
Location:  41.32°N, 87.03°W
Report Text: KVPZ 221656Z AUTO 13011KT 6SM UP SCT038 BKN046 OVC060 01/M02 A2989 RMK AO2 UPB29 SLP129 P0000 T00111017 TSNO
Loading
Personal Weather Stations






























Interactive Weather Map New forecast layout! Learn more

10-Day Weather Forecast

Advertisements
Track Severe Weather on mobile